Time;durP1;ratioP1;P1;durP2;ratioP2;P2;SDS_P1;SDS_P2;PMS_P1;PMS_P2;Temp;Humidity;BMP_temperature;BMP_pressure;BME280_temperature;BME280_humidity;BME280_pressure;Samples;Min_cycle;Max_cycle;Signal;HPM_P1;HPM_P2
2023/06/21 00:00:30;;;;;;;19.83;17.70;;;;;;;;;;5042739;28;20041;-79
2023/06/21 00:02:57;;;;;;;23.63;21.13;;;;;;;;;;5044470;28;20387;-79
2023/06/21 00:05:23;;;;;;;28.25;23.75;;;;;;;;;;5049035;28;20190;-78
2023/06/21 00:07:52;;;;;;;18.15;16.33;;;;;;;;;;5031605;28;20033;-79
2023/06/21 00:10:20;;;;;;;18.47;16.10;;;;;;;;;;5050666;28;20071;-79
2023/06/21 00:12:46;;;;;;;19.88;17.50;;;;;;;;;;5050666;28;20259;-78
2023/06/21 00:15:12;;;;;;;17.02;14.25;;;;;;;;;;5050665;28;20029;-78
2023/06/21 00:17:38;;;;;;;19.55;17.25;;;;;;;;;;5033239;28;20029;-78
2023/06/21 00:20:04;;;;;;;17.40;14.35;;;;;;;;;;5051803;28;20152;-77
2023/06/21 00:22:30;;;;;;;15.35;13.57;;;;;;;;;;5050373;28;20028;-79
2023/06/21 00:24:57;;;;;;;16.80;14.82;;;;;;;;;;5050542;28;20033;-79
2023/06/21 00:27:23;;;;;;;15.05;13.25;;;;;;;;;;5048114;28;20040;-79
2023/06/21 00:29:49;;;;;;;17.15;13.98;;;;;;;;;;5037994;28;20036;-78
2023/06/21 00:32:15;;;;;;;15.60;11.75;;;;;;;;;;5049573;28;20056;-79
2023/06/21 00:34:41;;;;;;;14.07;12.60;;;;;;;;;;5036096;28;20112;-79
2023/06/21 00:37:07;;;;;;;15.38;13.07;;;;;;;;;;5049438;28;20040;-80
2023/06/21 00:39:36;;;;;;;14.20;12.70;;;;;;;;;;5032372;28;20036;-79
2023/06/21 00:42:02;;;;;;;13.07;11.70;;;;;;;;;;5051434;28;20028;-80
2023/06/21 00:44:28;;;;;;;14.55;12.20;;;;;;;;;;5065073;28;20485;-78
2023/06/21 00:46:54;;;;;;;15.65;13.25;;;;;;;;;;5064754;28;20066;-79
2023/06/21 00:49:20;;;;;;;14.75;13.15;;;;;;;;;;5052956;28;20021;-80
2023/06/21 00:51:46;;;;;;;14.05;12.45;;;;;;;;;;5034133;28;20033;-80
2023/06/21 00:54:18;;;;;;;17.40;13.45;;;;;;;;;;5051242;28;20046;-79
2023/06/21 00:56:45;;;;;;;14.82;12.50;;;;;;;;;;5033449;28;20037;-79
2023/06/21 00:59:12;;;;;;;16.83;13.15;;;;;;;;;;5031387;28;20115;-79
2023/06/21 01:01:38;;;;;;;13.32;11.95;;;;;;;;;;5049815;28;20391;-80
2023/06/21 01:04:05;;;;;;;13.98;12.48;;;;;;;;;;5049600;28;20032;-78
2023/06/21 01:06:49;;;;;;;16.42;13.10;;;;;;;;;;5048421;28;20036;-78
2023/06/21 01:09:34;;;;;;;15.27;13.38;;;;;;;;;;5049072;28;20391;-79
2023/06/21 01:12:07;;;;;;;18.30;14.00;;;;;;;;;;5049426;28;20025;-79
2023/06/21 01:14:54;;;;;;;15.88;13.57;;;;;;;;;;5042540;28;20044;-78
2023/06/21 01:17:21;;;;;;;15.70;13.60;;;;;;;;;;5042359;28;20505;-79
2023/06/21 01:19:53;;;;;;;15.75;14.05;;;;;;;;;;5035230;28;20116;-79
2023/06/21 01:22:22;;;;;;;16.63;14.93;;;;;;;;;;5043818;28;20447;-80
2023/06/21 01:24:48;;;;;;;16.23;13.30;;;;;;;;;;5048079;28;20593;-80
2023/06/21 01:27:20;;;;;;;14.90;13.00;;;;;;;;;;5049392;28;20036;-79
2023/06/21 01:29:49;;;;;;;17.85;14.20;;;;;;;;;;5047714;28;20119;-77
2023/06/21 01:32:16;;;;;;;16.58;13.68;;;;;;;;;;5048913;28;20110;-79
2023/06/21 01:34:43;;;;;;;19.90;16.00;;;;;;;;;;5049180;28;20033;-79
2023/06/21 01:37:09;;;;;;;20.83;15.90;;;;;;;;;;5062394;28;20037;-79
2023/06/21 01:39:35;;;;;;;18.02;14.98;;;;;;;;;;5049254;28;20083;-78
2023/06/21 01:42:03;;;;;;;19.90;17.90;;;;;;;;;;5049752;28;20021;-79
2023/06/21 01:44:29;;;;;;;19.15;17.15;;;;;;;;;;5059620;28;20017;-79
2023/06/21 01:46:56;;;;;;;17.20;14.85;;;;;;;;;;5048371;28;20037;-79
2023/06/21 01:49:23;;;;;;;18.45;15.88;;;;;;;;;;5047723;28;20031;-79
2023/06/21 01:51:50;;;;;;;19.08;17.02;;;;;;;;;;5045033;28;20451;-79
2023/06/21 01:54:16;;;;;;;20.67;16.95;;;;;;;;;;5038299;28;20379;-80
2023/06/21 01:56:44;;;;;;;19.58;17.48;;;;;;;;;;5045926;28;20033;-79
2023/06/21 01:59:10;;;;;;;20.70;18.50;;;;;;;;;;5038295;28;20486;-79
2023/06/21 02:01:38;;;;;;;22.48;18.65;;;;;;;;;;5046783;28;20109;-78
2023/06/21 02:04:05;;;;;;;22.90;20.02;;;;;;;;;;5035206;28;20104;-77
2023/06/21 02:06:31;;;;;;;25.38;21.35;;;;;;;;;;5060135;28;20449;-78
2023/06/21 02:08:59;;;;;;;22.73;20.33;;;;;;;;;;5050425;28;20020;-80
2023/06/21 02:11:28;;;;;;;23.63;21.13;;;;;;;;;;5030329;28;20509;-78
2023/06/21 02:13:54;;;;;;;27.20;24.10;;;;;;;;;;5047935;28;20056;-79
2023/06/21 02:16:27;;;;;;;24.35;21.27;;;;;;;;;;5034569;28;20483;-79
2023/06/21 02:18:53;;;;;;;23.85;21.38;;;;;;;;;;5047638;28;20037;-78
2023/06/21 02:21:20;;;;;;;30.67;24.75;;;;;;;;;;5034257;28;20029;-81
2023/06/21 02:23:46;;;;;;;28.35;25.40;;;;;;;;;;5049159;28;20053;-79
2023/06/21 02:26:15;;;;;;;29.02;25.90;;;;;;;;;;5030418;28;20040;-79
2023/06/21 02:28:41;;;;;;;29.50;26.23;;;;;;;;;;5049843;28;20028;-79
2023/06/21 02:31:07;;;;;;;32.00;28.25;;;;;;;;;;5062864;28;20040;-79
2023/06/21 02:33:33;;;;;;;30.92;26.70;;;;;;;;;;5053136;28;20048;-79
2023/06/21 02:35:59;;;;;;;30.48;27.38;;;;;;;;;;5066530;28;20041;-79
2023/06/21 02:38:25;;;;;;;28.35;25.45;;;;;;;;;;5051646;28;20064;-79
2023/06/21 02:40:54;;;;;;;32.80;29.30;;;;;;;;;;5067142;28;20025;-79
2023/06/21 02:43:21;;;;;;;28.77;25.70;;;;;;;;;;5054242;28;20025;-80
2023/06/21 02:45:47;;;;;;;32.80;29.27;;;;;;;;;;5035514;28;20036;-80
2023/06/21 02:48:13;;;;;;;29.58;26.33;;;;;;;;;;5053034;28;20039;-80
2023/06/21 02:50:39;;;;;;;32.25;28.75;;;;;;;;;;5035967;28;20024;-79
2023/06/21 02:53:05;;;;;;;33.85;30.30;;;;;;;;;;5066383;28;20024;-78
2023/06/21 02:55:32;;;;;;;38.17;34.13;;;;;;;;;;5076752;28;20028;-79
2023/06/21 02:57:58;;;;;;;34.58;30.65;;;;;;;;;;5077932;28;20025;-77
2023/06/21 03:00:28;;;;;;;37.95;33.03;;;;;;;;;;5084580;28;20009;-79
2023/06/21 03:03:00;;;;;;;36.17;30.10;;;;;;;;;;5044353;28;20090;-79
2023/06/21 03:05:35;;;;;;;33.83;30.23;;;;;;;;;;5033287;28;20445;-79
2023/06/21 03:08:03;;;;;;;31.45;27.67;;;;;;;;;;5036082;28;20554;-78
2023/06/21 03:10:32;;;;;;;35.63;29.15;;;;;;;;;;5051930;28;20024;-79
2023/06/21 03:12:58;;;;;;;35.38;31.52;;;;;;;;;;5046262;28;20130;-80
2023/06/21 03:15:24;;;;;;;37.17;30.42;;;;;;;;;;5054529;28;20025;-79
2023/06/21 03:17:50;;;;;;;37.47;33.47;;;;;;;;;;5024762;28;20035;-78
2023/06/21 03:20:16;;;;;;;39.92;33.88;;;;;;;;;;5061589;28;20032;-79
2023/06/21 03:22:46;;;;;;;39.55;32.15;;;;;;;;;;5023354;28;20025;-80
2023/06/21 03:25:12;;;;;;;34.30;29.60;;;;;;;;;;5055895;28;20041;-80
2023/06/21 03:27:38;;;;;;;39.55;31.83;;;;;;;;;;5056107;28;20307;-79
2023/06/21 03:30:05;;;;;;;38.58;32.88;;;;;;;;;;5053165;28;20025;-81
2023/06/21 03:32:31;;;;;;;37.05;31.20;;;;;;;;;;5035792;28;20119;-79
2023/06/21 03:34:59;;;;;;;37.00;31.33;;;;;;;;;;5051717;28;20082;-79
2023/06/21 03:37:28;;;;;;;38.70;33.17;;;;;;;;;;5051168;28;20068;-81
2023/06/21 03:39:54;;;;;;;35.30;29.98;;;;;;;;;;5052308;28;20367;-80
2023/06/21 03:42:20;;;;;;;38.22;32.63;;;;;;;;;;5064776;28;20029;-79
2023/06/21 03:44:46;;;;;;;36.53;32.58;;;;;;;;;;5034291;28;20402;-79
2023/06/21 03:47:12;;;;;;;38.38;33.00;;;;;;;;;;5054174;28;20044;-79
2023/06/21 03:49:38;;;;;;;36.80;32.88;;;;;;;;;;5061877;28;20465;-79
2023/06/21 03:52:05;;;;;;;35.53;31.25;;;;;;;;;;5051005;28;20372;-78
2023/06/21 03:54:31;;;;;;;35.67;30.55;;;;;;;;;;5051410;28;20086;-79
2023/06/21 03:56:58;;;;;;;30.63;27.20;;;;;;;;;;5050646;28;20655;-81
2023/06/21 03:59:24;;;;;;;35.90;32.05;;;;;;;;;;5051674;28;20100;-78
2023/06/21 04:01:50;;;;;;;33.33;28.38;;;;;;;;;;5051058;28;20056;-80
2023/06/21 04:04:16;;;;;;;32.47;28.58;;;;;;;;;;5049523;28;20110;-79
2023/06/21 04:06:42;;;;;;;34.00;30.27;;;;;;;;;;5051524;28;20082;-81
2023/06/21 04:09:08;;;;;;;32.83;29.25;;;;;;;;;;5051107;28;20339;-79
2023/06/21 04:11:34;;;;;;;40.05;34.70;;;;;;;;;;5051298;28;20053;-81
2023/06/21 04:13:59;;;;;;;57.53;35.30;;;;;;;;;;5063714;28;20383;-79
2023/06/21 04:16:26;;;;;;;39.08;33.53;;;;;;;;;;5050091;28;20084;-78
2023/06/21 04:18:52;;;;;;;39.08;34.22;;;;;;;;;;5050154;28;20032;-78
2023/06/21 04:21:18;;;;;;;37.17;33.17;;;;;;;;;;5050309;28;20104;-80
2023/06/21 04:23:44;;;;;;;35.05;31.08;;;;;;;;;;5036591;28;20071;-80
2023/06/21 04:26:12;;;;;;;39.58;35.22;;;;;;;;;;5044497;28;20505;-79
2023/06/21 04:28:40;;;;;;;42.28;35.65;;;;;;;;;;5051541;28;20100;-80
2023/06/21 04:31:06;;;;;;;46.58;41.35;;;;;;;;;;5032235;28;20029;-76
2023/06/21 04:33:32;;;;;;;43.67;35.88;;;;;;;;;;5055144;28;20128;-79
2023/06/21 04:35:58;;;;;;;48.97;40.83;;;;;;;;;;5056837;28;20124;-78
2023/06/21 04:38:24;;;;;;;45.22;37.45;;;;;;;;;;5050295;28;20439;-82
2023/06/21 04:40:52;;;;;;;43.20;34.58;;;;;;;;;;5050332;28;20028;-79
2023/06/21 04:43:21;;;;;;;45.28;38.33;;;;;;;;;;5048506;28;20453;-79
2023/06/21 04:45:49;;;;;;;47.85;39.50;;;;;;;;;;5050307;28;20033;-79
2023/06/21 04:48:15;;;;;;;40.33;33.08;;;;;;;;;;5042291;28;20022;-80
2023/06/21 04:50:46;;;;;;;48.28;42.22;;;;;;;;;;5044455;28;20086;-80
2023/06/21 04:53:12;;;;;;;45.80;38.45;;;;;;;;;;5041958;28;20029;-78
2023/06/21 04:55:42;;;;;;;49.58;41.95;;;;;;;;;;5042814;28;20036;-78
2023/06/21 04:58:09;;;;;;;54.50;43.47;;;;;;;;;;5037947;28;20148;-79
2023/06/21 05:00:35;;;;;;;49.55;39.22;;;;;;;;;;5040924;28;20451;-78
2023/06/21 05:03:01;;;;;;;52.47;40.10;;;;;;;;;;5050993;28;20096;-78
2023/06/21 05:05:27;;;;;;;56.75;43.60;;;;;;;;;;5049552;28;20024;-78
2023/06/21 05:07:53;;;;;;;49.50;37.42;;;;;;;;;;5031906;28;20021;-80
2023/06/21 05:10:19;;;;;;;54.20;43.30;;;;;;;;;;5050143;28;20451;-80
2023/06/21 05:12:47;;;;;;;54.17;44.35;;;;;;;;;;5049914;28;20029;-78
2023/06/21 05:15:13;;;;;;;55.30;44.13;;;;;;;;;;5047191;28;20029;-80
2023/06/21 05:17:39;;;;;;;56.20;43.80;;;;;;;;;;5044047;28;20114;-78
2023/06/21 05:20:08;;;;;;;50.67;41.25;;;;;;;;;;5025020;28;20444;-78
2023/06/21 05:22:34;;;;;;;52.30;42.10;;;;;;;;;;5043014;28;20121;-79
2023/06/21 05:25:04;;;;;;;53.65;44.53;;;;;;;;;;5050297;28;20104;-77
2023/06/21 05:27:30;;;;;;;46.88;39.20;;;;;;;;;;5050021;28;20044;-77
2023/06/21 05:29:56;;;;;;;53.47;43.80;;;;;;;;;;5036886;28;20066;-78
2023/06/21 05:32:25;;;;;;;57.13;45.53;;;;;;;;;;5063315;28;20051;-78
2023/06/21 05:34:51;;;;;;;52.47;45.35;;;;;;;;;;5069973;28;20025;-77
2023/06/21 05:37:20;;;;;;;56.90;44.05;;;;;;;;;;5057982;28;20122;-78
2023/06/21 05:39:46;;;;;;;52.88;42.33;;;;;;;;;;5052132;28;20148;-80
2023/06/21 05:42:12;;;;;;;46.45;41.40;;;;;;;;;;5052034;28;20060;-78
2023/06/21 05:44:38;;;;;;;45.28;40.00;;;;;;;;;;5057301;28;20027;-80
2023/06/21 05:47:04;;;;;;;47.35;41.15;;;;;;;;;;5069182;28;20073;-78
2023/06/21 05:49:30;;;;;;;47.55;42.42;;;;;;;;;;5049592;28;20025;-77
2023/06/21 05:51:57;;;;;;;47.25;41.40;;;;;;;;;;5047639;28;20032;-79
2023/06/21 05:54:23;;;;;;;49.92;42.65;;;;;;;;;;5058151;28;20115;-78
2023/06/21 05:56:50;;;;;;;48.28;42.58;;;;;;;;;;5052254;28;20174;-77
2023/06/21 05:59:16;;;;;;;48.00;42.83;;;;;;;;;;5049148;28;20123;-77
2023/06/21 06:01:42;;;;;;;41.72;37.28;;;;;;;;;;5047789;28;20519;-78
2023/06/21 06:04:08;;;;;;;41.83;37.38;;;;;;;;;;5049013;28;20029;-77
2023/06/21 06:06:34;;;;;;;42.42;37.88;;;;;;;;;;5030320;28;20082;-77
2023/06/21 06:09:00;;;;;;;44.83;38.00;;;;;;;;;;5048817;28;20025;-76
2023/06/21 06:11:27;;;;;;;44.08;38.50;;;;;;;;;;5060787;28;20035;-78
2023/06/21 06:13:53;;;;;;;47.80;39.50;;;;;;;;;;5049894;28;20029;-76
2023/06/21 06:16:19;;;;;;;42.33;34.42;;;;;;;;;;5048387;28;20190;-76
2023/06/21 06:18:45;;;;;;;37.53;33.25;;;;;;;;;;5055069;28;20538;-80
2023/06/21 06:21:11;;;;;;;43.08;37.28;;;;;;;;;;5045614;28;20038;-76
2023/06/21 06:23:37;;;;;;;38.92;34.85;;;;;;;;;;5045324;28;20033;-78
2023/06/21 06:26:03;;;;;;;45.10;40.22;;;;;;;;;;5024098;28;20032;-75
2023/06/21 06:28:29;;;;;;;42.75;38.20;;;;;;;;;;5041518;28;20021;-77
2023/06/21 06:30:55;;;;;;;39.33;35.22;;;;;;;;;;5061768;28;20029;-76
2023/06/21 06:33:21;;;;;;;44.25;39.55;;;;;;;;;;5048669;28;20056;-76
2023/06/21 06:35:47;;;;;;;39.55;35.35;;;;;;;;;;5048306;28;20033;-79
2023/06/21 06:38:13;;;;;;;45.80;40.97;;;;;;;;;;5035959;28;20116;-76
2023/06/21 06:40:39;;;;;;;37.20;33.33;;;;;;;;;;5024636;28;20037;-74
2023/06/21 06:43:06;;;;;;;42.75;38.47;;;;;;;;;;5051269;28;20035;-77
2023/06/21 06:45:32;;;;;;;43.53;39.00;;;;;;;;;;5031448;28;20031;-76
2023/06/21 06:47:58;;;;;;;43.67;39.38;;;;;;;;;;5047533;28;20025;-77
2023/06/21 06:50:24;;;;;;;44.88;40.53;;;;;;;;;;5048693;28;20040;-77
2023/06/21 06:52:52;;;;;;;44.47;39.97;;;;;;;;;;5047928;28;20052;-74
2023/06/21 06:55:18;;;;;;;44.75;40.10;;;;;;;;;;5014489;28;20076;-76
2023/06/21 06:57:44;;;;;;;48.17;43.13;;;;;;;;;;5048645;28;20048;-75
2023/06/21 07:00:12;;;;;;;37.90;34.03;;;;;;;;;;5034456;28;20025;-76
2023/06/21 07:02:38;;;;;;;38.13;34.17;;;;;;;;;;5040862;28;20051;-77
2023/06/21 07:05:04;;;;;;;47.28;42.70;;;;;;;;;;5066699;28;20031;-75
2023/06/21 07:07:30;;;;;;;44.35;40.05;;;;;;;;;;5055743;28;20033;-75
2023/06/21 07:09:57;;;;;;;47.05;42.42;;;;;;;;;;5047790;28;20376;-77
2023/06/21 07:12:23;;;;;;;42.10;37.83;;;;;;;;;;5030288;28;20124;-76
2023/06/21 07:14:49;;;;;;;52.75;47.65;;;;;;;;;;5047709;28;20103;-78
2023/06/21 07:17:15;;;;;;;55.10;49.17;;;;;;;;;;5036168;28;20399;-75
2023/06/21 07:19:41;;;;;;;48.40;43.55;;;;;;;;;;5064089;28;20129;-78
2023/06/21 07:22:07;;;;;;;52.00;46.88;;;;;;;;;;5051510;28;20032;-78
2023/06/21 07:24:33;;;;;;;39.08;35.10;;;;;;;;;;5051608;28;20514;-77
2023/06/21 07:26:59;;;;;;;44.17;39.80;;;;;;;;;;5051546;28;20049;-75
2023/06/21 07:29:25;;;;;;;50.05;45.13;;;;;;;;;;5051399;28;20036;-78
2023/06/21 07:31:51;;;;;;;50.58;45.58;;;;;;;;;;5033244;28;20029;-76
2023/06/21 07:34:17;;;;;;;48.67;43.95;;;;;;;;;;5051882;28;20036;-77
2023/06/21 07:36:43;;;;;;;53.67;48.47;;;;;;;;;;5056658;28;20398;-78
2023/06/21 07:39:09;;;;;;;48.15;43.45;;;;;;;;;;5071083;28;20036;-78
2023/06/21 07:41:35;;;;;;;47.13;42.55;;;;;;;;;;5048631;28;20079;-78
2023/06/21 07:44:01;;;;;;;50.75;45.67;;;;;;;;;;5068558;28;20107;-78
2023/06/21 07:46:27;;;;;;;52.38;47.30;;;;;;;;;;5052764;28;20186;-80
2023/06/21 07:48:53;;;;;;;49.72;44.95;;;;;;;;;;5051747;28;20104;-76
2023/06/21 07:51:19;;;;;;;45.45;40.83;;;;;;;;;;5051517;28;20025;-77
2023/06/21 07:53:45;;;;;;;47.28;42.47;;;;;;;;;;5036602;28;20029;-75
2023/06/21 07:56:14;;;;;;;42.97;38.92;;;;;;;;;;5057236;28;20474;-79
2023/06/21 07:58:42;;;;;;;49.30;44.40;;;;;;;;;;5040467;28;20021;-77
2023/06/21 08:01:08;;;;;;;39.78;35.70;;;;;;;;;;5070830;28;20443;-77
2023/06/21 08:03:34;;;;;;;41.88;37.67;;;;;;;;;;5058521;28;20047;-78
2023/06/21 08:06:00;;;;;;;46.08;41.45;;;;;;;;;;5051533;28;20399;-79
2023/06/21 08:08:26;;;;;;;46.22;41.45;;;;;;;;;;5051390;28;20148;-77
2023/06/21 08:10:52;;;;;;;37.05;33.45;;;;;;;;;;5050633;28;20032;-78
2023/06/21 08:13:22;;;;;;;46.95;42.42;;;;;;;;;;5051794;28;20025;-79
2023/06/21 08:15:49;;;;;;;42.97;38.75;;;;;;;;;;5041963;28;20032;-76
2023/06/21 08:18:15;;;;;;;40.35;36.65;;;;;;;;;;5055494;28;20040;-76
2023/06/21 08:20:41;;;;;;;37.25;33.53;;;;;;;;;;5056109;28;20056;-77
2023/06/21 08:23:07;;;;;;;39.90;35.95;;;;;;;;;;5065018;28;20449;-76
2023/06/21 08:25:35;;;;;;;38.83;35.05;;;;;;;;;;5064658;28;20028;-78
2023/06/21 08:28:01;;;;;;;33.55;30.00;;;;;;;;;;5037820;28;20422;-77
2023/06/21 08:30:27;;;;;;;42.97;38.70;;;;;;;;;;5050433;28;20021;-76
2023/06/21 08:32:53;;;;;;;35.53;31.95;;;;;;;;;;5049512;28;20467;-76
2023/06/21 08:35:19;;;;;;;36.13;32.65;;;;;;;;;;5058521;28;20027;-77
2023/06/21 08:37:56;;;;;;;33.60;30.40;;;;;;;;;;5052760;28;20041;-77
2023/06/21 08:40:24;;;;;;;27.27;24.40;;;;;;;;;;5056269;28;20382;-77
2023/06/21 08:42:50;;;;;;;26.58;23.83;;;;;;;;;;5045219;28;20944;-77
2023/06/21 08:45:16;;;;;;;23.92;21.73;;;;;;;;;;5040969;28;20165;-77
2023/06/21 08:47:43;;;;;;;15.68;14.05;;;;;;;;;;5052286;28;20036;-77
2023/06/21 08:50:11;;;;;;;30.45;27.45;;;;;;;;;;5053149;28;20079;-78
2023/06/21 08:52:38;;;;;;;30.65;27.52;;;;;;;;;;5035046;28;20025;-77
2023/06/21 08:55:06;;;;;;;27.08;24.55;;;;;;;;;;5052996;28;20051;-79
2023/06/21 08:57:38;;;;;;;25.55;23.02;;;;;;;;;;5052261;28;20431;-80
2023/06/21 09:00:06;;;;;;;20.95;18.85;;;;;;;;;;5050693;28;20027;-79
2023/06/21 09:02:52;;;;;;;18.35;16.52;;;;;;;;;;5037470;28;20036;-77
2023/06/21 09:05:23;;;;;;;14.82;13.30;;;;;;;;;;5039200;28;20459;-76
2023/06/21 09:07:50;;;;;;;21.20;19.00;;;;;;;;;;5044588;28;20093;-77
2023/06/21 09:10:18;;;;;;;19.40;17.30;;;;;;;;;;5033513;28;20557;-79
2023/06/21 09:12:45;;;;;;;19.63;17.65;;;;;;;;;;5060139;28;20445;-80
2023/06/21 09:15:12;;;;;;;20.08;17.80;;;;;;;;;;5066604;28;20379;-77
2023/06/21 09:17:39;;;;;;;14.95;13.40;;;;;;;;;;5050302;28;20387;-79
2023/06/21 09:20:10;;;;;;;15.10;13.57;;;;;;;;;;5064963;28;20075;-79
2023/06/21 09:22:37;;;;;;;18.52;16.50;;;;;;;;;;5032608;28;20112;-78
2023/06/21 09:25:03;;;;;;;14.45;13.05;;;;;;;;;;5032834;28;20029;-79
2023/06/21 09:27:29;;;;;;;13.98;11.93;;;;;;;;;;5045999;28;20103;-81
2023/06/21 09:30:04;;;;;;;12.82;11.63;;;;;;;;;;5050633;28;20120;-79
2023/06/21 09:32:36;;;;;;;13.52;12.05;;;;;;;;;;5051210;28;20132;-78
2023/06/21 09:35:02;;;;;;;11.73;10.57;;;;;;;;;;5045603;28;20018;-77
2023/06/21 09:37:35;;;;;;;11.52;9.77;;;;;;;;;;5041459;28;20044;-82
2023/06/21 09:40:01;;;;;;;10.40;7.35;;;;;;;;;;5049786;28;20387;-77
2023/06/21 09:42:28;;;;;;;9.32;7.05;;;;;;;;;;5053581;28;20074;-79
2023/06/21 09:44:54;;;;;;;8.88;6.88;;;;;;;;;;5054789;28;20111;-80
2023/06/21 09:47:20;;;;;;;9.05;6.38;;;;;;;;;;5071913;28;20385;-80
2023/06/21 09:49:47;;;;;;;7.78;5.93;;;;;;;;;;5057338;28;20029;-77
2023/06/21 09:52:17;;;;;;;8.68;6.28;;;;;;;;;;5049658;28;20025;-77
2023/06/21 09:54:44;;;;;;;6.60;3.65;;;;;;;;;;5047939;28;20392;-78
2023/06/21 09:57:10;;;;;;;6.57;3.47;;;;;;;;;;5048734;28;20040;-76
2023/06/21 09:59:38;;;;;;;6.50;3.63;;;;;;;;;;5049939;28;20071;-77
2023/06/21 10:02:07;;;;;;;7.95;5.25;;;;;;;;;;5045089;28;20060;-78
2023/06/21 10:04:43;;;;;;;7.15;5.13;;;;;;;;;;5070775;28;20089;-77
2023/06/21 10:07:12;;;;;;;9.80;7.45;;;;;;;;;;5070142;28;20090;-77
2023/06/21 10:09:39;;;;;;;6.60;4.85;;;;;;;;;;5052961;28;20029;-80
2023/06/21 10:12:05;;;;;;;8.63;5.43;;;;;;;;;;5049365;28;20475;-78
2023/06/21 10:14:32;;;;;;;6.93;4.65;;;;;;;;;;5049674;28;21664;-78
2023/06/21 10:16:58;;;;;;;6.70;4.53;;;;;;;;;;5049701;28;20063;-78
2023/06/21 10:19:26;;;;;;;6.97;4.90;;;;;;;;;;5049928;28;20028;-79
2023/06/21 10:21:59;;;;;;;7.18;5.43;;;;;;;;;;5049529;28;20495;-79
2023/06/21 10:24:26;;;;;;;11.43;4.85;;;;;;;;;;5049496;28;20115;-79
2023/06/21 10:26:53;;;;;;;11.07;6.03;;;;;;;;;;5049315;28;20078;-78
2023/06/21 10:29:19;;;;;;;7.88;4.45;;;;;;;;;;5050152;28;20108;-77
2023/06/21 10:31:47;;;;;;;8.30;5.15;;;;;;;;;;5031778;28;20040;-79
2023/06/21 10:34:15;;;;;;;7.13;3.72;;;;;;;;;;5049484;28;20032;-81
2023/06/21 10:36:44;;;;;;;5.00;2.75;;;;;;;;;;5049092;28;20041;-80
2023/06/21 10:39:11;;;;;;;6.97;3.78;;;;;;;;;;5049087;28;20021;-79
2023/06/21 10:41:39;;;;;;;8.25;4.40;;;;;;;;;;5050401;28;20048;-79
2023/06/21 10:44:06;;;;;;;6.03;4.22;;;;;;;;;;5056292;28;20032;-80
2023/06/21 10:46:33;;;;;;;5.82;2.55;;;;;;;;;;5049272;28;20025;-79
2023/06/21 10:48:59;;;;;;;7.25;4.45;;;;;;;;;;5049589;28;20071;-79
2023/06/21 10:51:26;;;;;;;8.13;4.60;;;;;;;;;;5050172;28;20409;-78
2023/06/21 10:53:53;;;;;;;6.80;4.28;;;;;;;;;;5055312;28;20025;-80
2023/06/21 10:56:20;;;;;;;6.10;4.10;;;;;;;;;;5088455;28;20037;-79
2023/06/21 10:58:46;;;;;;;6.00;3.97;;;;;;;;;;5090185;28;20068;-79
2023/06/21 11:01:12;;;;;;;7.00;4.22;;;;;;;;;;5072843;28;20029;-83
2023/06/21 11:03:39;;;;;;;6.20;3.35;;;;;;;;;;5071853;28;20251;-83
2023/06/21 11:06:22;;;;;;;4.78;3.03;;;;;;;;;;5065424;28;20032;-81
2023/06/21 11:08:48;;;;;;;6.28;3.88;;;;;;;;;;5062996;28;20044;-82
2023/06/21 11:11:29;;;;;;;8.45;4.43;;;;;;;;;;5052395;28;20100;-82
2023/06/21 11:13:55;;;;;;;9.80;5.90;;;;;;;;;;5047343;28;20076;-81
2023/06/21 11:16:25;;;;;;;6.35;2.95;;;;;;;;;;5038808;28;20041;-81
2023/06/21 11:18:59;;;;;;;6.90;3.83;;;;;;;;;;5049316;28;20025;-83
2023/06/21 11:21:40;;;;;;;5.32;3.58;;;;;;;;;;5067642;28;20104;-84
2023/06/21 11:24:07;;;;;;;6.30;3.88;;;;;;;;;;5050498;28;20029;-81
2023/06/21 11:27:07;;;;;;;6.72;3.88;;;;;;;;;;5042090;28;20106;-83
2023/06/21 11:29:35;;;;;;;6.15;3.45;;;;;;;;;;5010591;28;20046;-81
2023/06/21 11:32:08;;;;;;;7.10;3.10;;;;;;;;;;5081041;28;20047;-80
2023/06/21 11:34:34;;;;;;;7.72;3.17;;;;;;;;;;5085517;28;20052;-82
2023/06/21 11:37:23;;;;;;;9.68;4.47;;;;;;;;;;5074663;28;20033;-80
2023/06/21 11:39:57;;;;;;;6.73;3.70;;;;;;;;;;5039110;28;20123;-79
2023/06/21 11:42:26;;;;;;;6.43;4.18;;;;;;;;;;5052876;28;20555;-81
2023/06/21 11:44:54;;;;;;;5.88;3.70;;;;;;;;;;5042778;28;20092;-84
2023/06/21 11:47:20;;;;;;;5.75;3.58;;;;;;;;;;5073586;28;20061;-83
2023/06/21 11:49:48;;;;;;;9.23;4.60;;;;;;;;;;5077812;28;20020;-84
2023/06/21 11:52:14;;;;;;;5.70;2.90;;;;;;;;;;5053661;28;20033;-83
2023/06/21 11:54:40;;;;;;;6.95;3.85;;;;;;;;;;5063221;28;20104;-82
2023/06/21 11:57:07;;;;;;;6.40;3.05;;;;;;;;;;5069613;28;20056;-81
2023/06/21 11:59:33;;;;;;;5.45;3.40;;;;;;;;;;5065488;28;20029;-81
2023/06/21 12:02:20;;;;;;;6.13;3.33;;;;;;;;;;5065860;28;20446;-85
2023/06/21 12:04:50;;;;;;;6.75;3.95;;;;;;;;;;5048976;28;20124;-84
2023/06/21 12:07:16;;;;;;;5.00;2.47;;;;;;;;;;5051344;28;20100;-82
2023/06/21 12:09:49;;;;;;;4.90;3.28;;;;;;;;;;5054380;28;20058;-83
2023/06/21 12:12:16;;;;;;;6.95;3.10;;;;;;;;;;5051157;28;20017;-84
2023/06/21 12:14:42;;;;;;;5.60;2.38;;;;;;;;;;5064392;28;20355;-84
2023/06/21 12:17:08;;;;;;;4.88;2.55;;;;;;;;;;5064078;28;20088;-82
2023/06/21 12:19:34;;;;;;;4.72;2.65;;;;;;;;;;5064460;28;20021;-83
2023/06/21 12:22:04;;;;;;;4.85;2.13;;;;;;;;;;5062190;28;20028;-83
2023/06/21 12:24:32;;;;;;;6.82;4.05;;;;;;;;;;5072527;28;20119;-84
2023/06/21 12:27:00;;;;;;;7.35;3.28;;;;;;;;;;5055162;28;20032;-81
2023/06/21 12:29:27;;;;;;;6.50;3.08;;;;;;;;;;5052990;28;20067;-83
2023/06/21 12:31:56;;;;;;;4.85;2.40;;;;;;;;;;5037692;28;20021;-84
2023/06/21 12:34:23;;;;;;;5.47;1.85;;;;;;;;;;5048879;28;20033;-83
2023/06/21 12:36:51;;;;;;;6.00;2.22;;;;;;;;;;5051227;28;20087;-81
2023/06/21 12:39:18;;;;;;;6.13;3.22;;;;;;;;;;5065019;28;20034;-82
2023/06/21 12:41:44;;;;;;;4.57;2.15;;;;;;;;;;5041055;28;20032;-85
2023/06/21 12:44:19;;;;;;;6.10;3.50;;;;;;;;;;5052313;28;20395;-82
2023/06/21 12:46:45;;;;;;;3.88;2.17;;;;;;;;;;5051953;28;20025;-83
2023/06/21 12:49:13;;;;;;;5.80;3.05;;;;;;;;;;5052481;28;20448;-83
2023/06/21 12:51:39;;;;;;;6.47;2.90;;;;;;;;;;5052307;28;20433;-81
2023/06/21 12:54:10;;;;;;;4.95;2.83;;;;;;;;;;5051349;28;20048;-83
2023/06/21 12:56:38;;;;;;;4.70;2.53;;;;;;;;;;5050786;28;20162;-82
2023/06/21 12:59:04;;;;;;;5.40;3.35;;;;;;;;;;5055146;28;20071;-82
2023/06/21 13:01:31;;;;;;;4.97;2.42;;;;;;;;;;5071787;28;20513;-83
2023/06/21 13:03:57;;;;;;;6.05;2.60;;;;;;;;;;5035468;28;20032;-80
2023/06/21 13:06:27;;;;;;;7.00;3.22;;;;;;;;;;5051065;28;20021;-81
2023/06/21 13:08:53;;;;;;;5.70;3.00;;;;;;;;;;5049959;28;20159;-79
2023/06/21 13:11:19;;;;;;;4.90;1.95;;;;;;;;;;5032855;28;20124;-82
2023/06/21 13:13:45;;;;;;;6.43;3.08;;;;;;;;;;5051086;28;20208;-83
2023/06/21 13:16:12;;;;;;;5.72;3.10;;;;;;;;;;5050111;28;20159;-84
2023/06/21 13:18:44;;;;;;;6.43;2.97;;;;;;;;;;5052416;28;20013;-84
2023/06/21 13:21:10;;;;;;;6.07;2.75;;;;;;;;;;5033593;28;20039;-81
2023/06/21 13:23:36;;;;;;;8.57;2.80;;;;;;;;;;5055905;28;20024;-82
2023/06/21 13:26:02;;;;;;;3.92;1.73;;;;;;;;;;5046976;28;20125;-84
2023/06/21 13:28:28;;;;;;;4.30;1.98;;;;;;;;;;5031246;28;20408;-83
2023/06/21 13:30:54;;;;;;;5.53;2.85;;;;;;;;;;5054259;28;20028;-87
2023/06/21 13:33:20;;;;;;;5.05;2.17;;;;;;;;;;5036722;28;20435;-88
2023/06/21 13:35:47;;;;;;;5.28;2.75;;;;;;;;;;5061780;28;20033;-85
2023/06/21 13:38:16;;;;;;;6.43;2.17;;;;;;;;;;5088987;28;20107;-82
2023/06/21 13:40:43;;;;;;;5.20;2.80;;;;;;;;;;5059973;28;20040;-84
2023/06/21 13:43:09;;;;;;;4.78;2.45;;;;;;;;;;5067683;28;20297;-81
2023/06/21 13:45:35;;;;;;;4.95;2.42;;;;;;;;;;5075635;28;20028;-84
2023/06/21 13:48:02;;;;;;;3.30;2.00;;;;;;;;;;5055390;28;20024;-82
2023/06/21 13:50:28;;;;;;;4.50;2.05;;;;;;;;;;5053431;28;20029;-81
2023/06/21 13:52:54;;;;;;;4.55;1.88;;;;;;;;;;5034490;28;20039;-81
2023/06/21 13:55:20;;;;;;;4.93;1.60;;;;;;;;;;5053754;28;20029;-81
2023/06/21 13:57:48;;;;;;;3.85;1.60;;;;;;;;;;5055186;28;20048;-84
2023/06/21 14:00:15;;;;;;;3.90;1.55;;;;;;;;;;5053816;28;20033;-83
2023/06/21 14:02:42;;;;;;;4.05;1.67;;;;;;;;;;5064483;28;20115;-83
2023/06/21 14:05:10;;;;;;;4.10;2.10;;;;;;;;;;5057370;28;20210;-84
2023/06/21 14:07:37;;;;;;;5.72;2.17;;;;;;;;;;5034291;28;20033;-84
2023/06/21 14:10:03;;;;;;;3.38;1.83;;;;;;;;;;5050688;28;20099;-83
2023/06/21 14:12:29;;;;;;;3.97;1.70;;;;;;;;;;5043555;28;20480;-84
2023/06/21 14:14:56;;;;;;;6.47;2.00;;;;;;;;;;5048547;28;20025;-84
2023/06/21 14:17:22;;;;;;;3.10;1.42;;;;;;;;;;5053681;28;20109;-83
2023/06/21 14:19:48;;;;;;;4.80;2.00;;;;;;;;;;5052722;28;20455;-85
2023/06/21 14:22:16;;;;;;;4.60;1.92;;;;;;;;;;5050231;28;20427;-84
2023/06/21 14:24:42;;;;;;;4.32;1.60;;;;;;;;;;5052678;28;20051;-81
2023/06/21 14:27:08;;;;;;;3.63;1.55;;;;;;;;;;5052089;28;20415;-85